createdAt,value
2023-10-27T00:01:06.901Z,9.57
2023-10-27T00:03:34.184Z,9.61
2023-10-27T00:06:01.516Z,9.59
2023-10-27T00:08:28.865Z,9.60
2023-10-27T00:10:56.231Z,9.59
2023-10-27T00:13:23.589Z,9.60
2023-10-27T00:15:52.285Z,9.68
2023-10-27T00:18:19.583Z,9.67
2023-10-27T00:20:46.880Z,9.60
2023-10-27T00:23:14.148Z,9.52
2023-10-27T00:25:41.524Z,9.46
2023-10-27T00:28:08.793Z,9.57
2023-10-27T00:30:36.078Z,9.52
2023-10-27T00:33:04.803Z,9.53
2023-10-27T00:35:32.164Z,9.56
2023-10-27T00:37:59.442Z,9.57
2023-10-27T00:40:26.908Z,9.59
2023-10-27T00:42:58.053Z,9.90
2023-10-27T00:45:26.222Z,9.81
2023-10-27T00:47:53.324Z,9.71
2023-10-27T00:50:21.953Z,9.82
2023-10-27T00:52:50.087Z,9.60
2023-10-27T00:55:17.447Z,9.63
2023-10-27T00:57:44.915Z,9.64
2023-10-27T01:00:13.675Z,9.65
2023-10-27T01:02:41.263Z,9.59
2023-10-27T01:05:09.055Z,9.50
2023-10-27T01:07:37.818Z,9.52
2023-10-27T01:10:06.132Z,9.53
2023-10-27T01:12:33.423Z,9.52
2023-10-27T01:15:00.852Z,9.61
2023-10-27T01:17:28.185Z,9.58
2023-10-27T01:19:55.604Z,9.51
2023-10-27T01:22:22.965Z,9.57
2023-10-27T01:24:51.707Z,9.41
2023-10-27T01:27:32.516Z,9.49
2023-10-27T01:29:59.783Z,9.56
2023-10-27T01:32:27.121Z,9.42
2023-10-27T01:34:54.506Z,9.43
2023-10-27T01:37:21.929Z,9.46
2023-10-27T01:39:49.192Z,9.47
2023-10-27T01:42:17.886Z,9.63
2023-10-27T01:44:45.119Z,9.57
2023-10-27T01:47:12.349Z,9.42
2023-10-27T01:49:39.643Z,9.51
2023-10-27T01:52:06.949Z,9.44
2023-10-27T01:54:34.251Z,9.46
2023-10-27T01:57:01.523Z,9.40
2023-10-27T01:59:30.103Z,9.41
2023-10-27T02:01:57.324Z,9.49
2023-10-27T02:04:24.653Z,9.62
2023-10-27T02:06:52.223Z,9.51
2023-10-27T02:09:19.514Z,9.58
2023-10-27T02:11:46.793Z,9.41
2023-10-27T02:14:14.054Z,9.52
2023-10-27T02:16:42.706Z,9.40
2023-10-27T02:19:10.064Z,9.35
2023-10-27T02:21:37.494Z,9.40
2023-10-27T02:24:05.257Z,9.57
2023-10-27T02:26:32.565Z,9.40
2023-10-27T02:29:00.666Z,9.41
2023-10-27T02:31:28.700Z,9.37
2023-10-27T02:33:57.467Z,9.48
2023-10-27T02:36:24.924Z,9.46
2023-10-27T02:38:52.253Z,9.48
2023-10-27T02:41:19.552Z,9.44
2023-10-27T02:43:46.798Z,9.46
2023-10-27T02:46:14.317Z,9.64
2023-10-27T02:48:41.702Z,9.56
2023-10-27T02:51:10.741Z,9.48
2023-10-27T02:53:37.973Z,9.52
2023-10-27T02:56:06.326Z,9.67
2023-10-27T02:58:33.648Z,9.66
2023-10-27T03:01:00.905Z,9.61
2023-10-27T03:03:28.233Z,9.58
2023-10-27T03:05:55.505Z,9.67
2023-10-27T03:08:24.161Z,9.56
2023-10-27T03:10:51.402Z,9.63
2023-10-27T03:13:19.814Z,9.48
2023-10-27T03:15:47.072Z,9.56
2023-10-27T03:18:14.434Z,9.52
2023-10-27T03:20:41.753Z,9.51
2023-10-27T03:23:09.005Z,9.58
2023-10-27T03:25:37.723Z,9.53
2023-10-27T03:28:04.960Z,9.42
2023-10-27T03:30:32.383Z,9.46
2023-10-27T03:35:50.777Z,9.61
2023-10-27T03:38:18.119Z,9.57
2023-10-27T03:40:46.827Z,9.48
2023-10-27T03:43:14.134Z,9.47
2023-10-27T03:45:41.526Z,9.66
2023-10-27T03:48:08.854Z,9.59
2023-10-27T03:50:36.214Z,9.67
2023-10-27T03:53:03.739Z,9.58
2023-10-27T03:55:31.066Z,9.40
2023-10-27T04:01:06.113Z,9.53
2023-10-27T04:03:33.626Z,9.38
2023-10-27T04:06:00.950Z,9.41
2023-10-27T04:08:28.245Z,9.50
2023-10-27T04:10:55.533Z,9.51
2023-10-27T04:13:22.848Z,9.70
2023-10-27T04:15:50.188Z,9.58
2023-10-27T04:18:18.925Z,9.48
2023-10-27T04:20:46.247Z,9.52
2023-10-27T04:23:13.676Z,9.55
2023-10-27T04:25:40.982Z,9.57
2023-10-27T04:28:08.270Z,9.60
2023-10-27T04:30:35.543Z,9.50
2023-10-27T04:33:02.970Z,9.41
2023-10-27T04:35:31.650Z,9.46
2023-10-27T04:37:59.096Z,9.51
2023-10-27T04:40:26.442Z,9.59
2023-10-27T04:42:53.723Z,9.61
2023-10-27T04:45:21.024Z,9.48
2023-10-27T04:47:48.312Z,9.58
2023-10-27T04:50:15.693Z,9.39
2023-10-27T04:52:44.393Z,9.53
2023-10-27T04:55:13.603Z,9.42
2023-10-27T04:57:41.177Z,9.50
2023-10-27T05:00:09.328Z,9.49
2023-10-27T05:02:36.408Z,9.55
2023-10-27T05:05:04.110Z,9.56
2023-10-27T05:07:31.485Z,9.52
2023-10-27T05:10:00.126Z,9.68
2023-10-27T05:12:27.444Z,9.53
2023-10-27T05:14:54.749Z,9.66
2023-10-27T05:17:22.010Z,9.61
2023-10-27T05:19:49.278Z,9.63
2023-10-27T05:22:16.716Z,9.66
2023-10-27T05:24:43.955Z,9.52
2023-10-27T05:27:12.573Z,9.56
2023-10-27T05:29:39.835Z,9.57
2023-10-27T05:32:07.197Z,9.52
2023-10-27T05:34:34.475Z,9.49
2023-10-27T05:37:01.845Z,9.38
2023-10-27T05:39:29.099Z,9.44
2023-10-27T05:41:56.386Z,9.41
2023-10-27T05:44:25.124Z,9.30
2023-10-27T05:46:52.396Z,9.52
2023-10-27T05:49:19.713Z,9.66
2023-10-27T05:51:47.068Z,9.62
2023-10-27T05:54:14.320Z,9.61
2023-10-27T05:56:41.609Z,9.66
2023-10-27T05:59:08.918Z,9.63
2023-10-27T06:01:37.599Z,9.48
2023-10-27T06:04:05.666Z,9.46
2023-10-27T06:06:32.968Z,9.46
2023-10-27T06:09:00.242Z,9.51
2023-10-27T06:11:27.489Z,9.48
2023-10-27T06:13:54.979Z,9.66
2023-10-27T06:16:22.205Z,9.58
2023-10-27T06:18:51.143Z,9.52
2023-10-27T06:21:18.437Z,9.58
2023-10-27T06:23:45.811Z,9.50
2023-10-27T06:26:13.051Z,9.57
2023-10-27T06:28:40.443Z,9.45
2023-10-27T06:31:07.820Z,9.62
2023-10-27T06:33:35.105Z,9.50
2023-10-27T06:36:05.412Z,9.58
2023-10-27T06:38:32.690Z,9.60
2023-10-27T06:40:59.956Z,9.58
2023-10-27T06:43:27.671Z,9.48
2023-10-27T06:45:54.967Z,9.46
2023-10-27T06:48:22.423Z,9.51
2023-10-27T06:50:49.762Z,9.63
2023-10-27T06:53:18.379Z,9.59
2023-10-27T06:55:45.675Z,9.46
2023-10-27T06:58:13.046Z,9.45
2023-10-27T07:00:40.440Z,9.51
2023-10-27T07:03:21.133Z,9.56
2023-10-27T07:05:54.979Z,9.53
2023-10-27T07:08:23.666Z,9.55
2023-10-27T07:10:50.909Z,9.64
2023-10-27T07:13:18.237Z,9.60
2023-10-27T07:15:45.564Z,9.65
2023-10-27T07:18:12.907Z,9.68
2023-10-27T07:20:40.443Z,9.51
2023-10-27T07:23:07.746Z,9.60
2023-10-27T07:25:36.469Z,9.61
2023-10-27T07:28:04.431Z,9.62
2023-10-27T07:30:31.791Z,9.55
2023-10-27T07:32:59.080Z,9.58
2023-10-27T07:35:26.521Z,9.63
2023-10-27T07:37:55.236Z,9.66
2023-10-27T07:40:22.579Z,9.70
2023-10-27T07:42:51.428Z,9.69
2023-10-27T07:45:18.758Z,9.75
2023-10-27T07:47:46.099Z,9.76
2023-10-27T07:50:13.512Z,9.84
2023-10-27T07:52:40.819Z,9.88
2023-10-27T07:55:08.235Z,9.79
2023-10-27T07:57:35.630Z,9.74
2023-10-27T08:00:05.814Z,9.69
2023-10-27T08:02:33.177Z,9.67
2023-10-27T08:05:00.547Z,9.60
2023-10-27T08:07:27.794Z,9.65
2023-10-27T08:09:55.097Z,9.59
2023-10-27T08:12:22.425Z,9.70
2023-10-27T08:14:49.722Z,9.70
2023-10-27T08:17:18.368Z,9.74
2023-10-27T08:19:45.712Z,9.73
2023-10-27T08:22:13.008Z,9.78
2023-10-27T08:24:40.217Z,9.93
2023-10-27T08:27:07.574Z,9.93
2023-10-27T08:29:34.870Z,9.96
2023-10-27T08:32:02.221Z,9.77
2023-10-27T08:34:30.941Z,9.69
2023-10-27T08:36:58.226Z,9.83
2023-10-27T08:39:25.457Z,9.71
2023-10-27T08:41:54.758Z,9.67
2023-10-27T08:44:25.857Z,9.75
2023-10-27T08:46:53.467Z,9.75
2023-10-27T08:49:20.785Z,9.76
2023-10-27T08:51:49.727Z,9.71
2023-10-27T08:54:18.879Z,9.72
2023-10-27T08:56:46.642Z,9.64
2023-10-27T08:59:13.908Z,9.72
2023-10-27T09:01:41.235Z,9.84
2023-10-27T09:04:10.340Z,9.86
2023-10-27T09:06:38.793Z,9.83
2023-10-27T09:09:08.555Z,9.92
2023-10-27T09:11:40.492Z,9.81
2023-10-27T09:14:17.388Z,9.63
2023-10-27T09:16:44.816Z,9.70
2023-10-27T09:19:22.995Z,9.91
2023-10-27T09:21:50.355Z,9.92
2023-10-27T09:24:29.319Z,9.80
2023-10-27T09:26:58.022Z,9.86
2023-10-27T09:29:25.382Z,9.96
2023-10-27T09:31:53.293Z,9.95
2023-10-27T09:34:22.397Z,10.00
2023-10-27T09:36:51.075Z,9.97
2023-10-27T09:39:19.035Z,9.94
2023-10-27T09:41:48.973Z,10.01
2023-10-27T09:44:16.940Z,9.88
2023-10-27T09:46:55.813Z,9.92
2023-10-27T09:49:32.146Z,9.75
2023-10-27T09:52:01.395Z,9.78
2023-10-27T09:54:30.721Z,9.90
2023-10-27T09:57:00.819Z,9.87
2023-10-27T09:59:29.665Z,9.99
2023-10-27T10:01:58.918Z,10.30
2023-10-27T10:04:57.179Z,10.15
2023-10-27T10:07:34.797Z,10.12
2023-10-27T10:10:19.834Z,10.17
2023-10-27T10:13:09.212Z,10.02
2023-10-27T10:15:38.643Z,10.06
2023-10-27T10:18:06.735Z,10.26
2023-10-27T10:20:56.417Z,10.25
2023-10-27T10:23:25.247Z,10.11
2023-10-27T10:25:53.215Z,10.15
2023-10-27T10:28:26.394Z,10.15
2023-10-27T10:31:23.050Z,10.16
2023-10-27T10:33:50.588Z,10.05
2023-10-27T10:36:24.510Z,10.22
2023-10-27T10:38:58.830Z,10.08
2023-10-27T10:41:44.270Z,10.07
2023-10-27T10:44:14.169Z,9.99
2023-10-27T10:46:41.982Z,10.14
2023-10-27T10:49:10.130Z,10.10
2023-10-27T10:51:37.682Z,10.05
2023-10-27T10:54:13.140Z,10.05
2023-10-27T10:56:40.670Z,10.00
2023-10-27T10:59:07.933Z,9.93
2023-10-27T11:01:36.688Z,9.94
2023-10-27T11:04:04.558Z,9.89
2023-10-27T11:06:31.954Z,10.00
2023-10-27T11:08:59.218Z,10.07
2023-10-27T11:11:38.231Z,9.93
2023-10-27T11:14:09.426Z,10.07
2023-10-27T11:16:38.122Z,10.08
2023-10-27T11:19:16.413Z,10.04
2023-10-27T11:21:43.756Z,10.10
2023-10-27T11:24:11.726Z,9.97
2023-10-27T11:26:39.966Z,9.84
2023-10-27T11:29:08.637Z,9.91
2023-10-27T11:31:35.932Z,9.76
2023-10-27T11:34:05.890Z,9.90
2023-10-27T11:36:34.306Z,9.98
2023-10-27T11:39:15.305Z,9.87
2023-10-27T11:41:44.465Z,9.82
2023-10-27T11:44:11.768Z,10.01
2023-10-27T11:46:45.853Z,9.82
2023-10-27T11:49:14.647Z,9.84
2023-10-27T11:51:43.339Z,10.03
2023-10-27T11:54:10.624Z,10.02
2023-10-27T11:56:37.981Z,9.96
2023-10-27T11:59:05.780Z,10.02
2023-10-27T12:01:33.214Z,10.10
2023-10-27T12:04:01.389Z,9.98
2023-10-27T12:06:30.065Z,9.94
2023-10-27T12:08:57.346Z,9.90
2023-10-27T12:11:24.664Z,10.11
2023-10-27T12:13:51.939Z,10.11
2023-10-27T12:16:19.265Z,10.26
2023-10-27T12:18:46.586Z,9.99
2023-10-27T12:21:13.862Z,9.92
2023-10-27T12:23:42.590Z,9.89
2023-10-27T12:26:09.923Z,10.14
2023-10-27T12:28:37.235Z,10.14
2023-10-27T12:31:04.706Z,10.13
2023-10-27T12:33:31.993Z,10.24
2023-10-27T12:36:06.220Z,10.29
2023-10-27T12:38:33.378Z,10.23
2023-10-27T12:41:01.951Z,10.01
2023-10-27T12:43:29.260Z,9.98
2023-10-27T12:45:56.601Z,9.99
2023-10-27T12:48:23.900Z,9.93
2023-10-27T12:50:51.273Z,9.94
2023-10-27T12:53:18.618Z,9.93
2023-10-27T12:55:45.960Z,9.85
2023-10-27T12:58:14.697Z,9.86
2023-10-27T13:00:43.453Z,9.77
2023-10-27T13:03:11.463Z,9.62
2023-10-27T13:05:38.947Z,9.62
2023-10-27T13:08:06.493Z,9.57
2023-10-27T13:10:33.900Z,9.73
2023-10-27T13:13:01.314Z,9.96
2023-10-27T13:15:32.366Z,9.67
2023-10-27T13:17:59.713Z,9.53
2023-10-27T13:20:27.369Z,9.64
2023-10-27T13:22:54.657Z,9.74
2023-10-27T13:25:22.025Z,9.59
2023-10-27T13:27:49.542Z,9.81
2023-10-27T13:30:16.961Z,9.83
2023-10-27T13:32:47.764Z,9.78
2023-10-27T13:35:15.111Z,9.91
2023-10-27T13:37:42.525Z,9.75
2023-10-27T13:40:11.135Z,9.73
2023-10-27T13:42:39.445Z,9.67
2023-10-27T13:45:07.572Z,9.66
2023-10-27T13:47:34.881Z,9.68
2023-10-27T13:50:03.771Z,9.69
2023-10-27T13:52:31.101Z,9.68
2023-10-27T13:54:58.610Z,9.62
2023-10-27T13:57:26.404Z,9.88
2023-10-27T13:59:53.675Z,9.96
2023-10-27T14:02:20.999Z,9.86
2023-10-27T14:04:48.643Z,9.69
2023-10-27T14:07:17.669Z,9.63
2023-10-27T14:09:45.204Z,9.72
2023-10-27T14:12:12.523Z,9.73
2023-10-27T14:14:39.780Z,9.63
2023-10-27T14:17:07.030Z,9.68
2023-10-27T14:19:34.378Z,9.76
2023-10-27T14:22:01.679Z,9.72
2023-10-27T14:24:30.344Z,9.64
2023-10-27T14:26:58.851Z,9.74
2023-10-27T14:29:26.115Z,9.64
2023-10-27T14:31:53.426Z,9.63
2023-10-27T14:34:20.850Z,9.39
2023-10-27T14:36:48.148Z,9.45
2023-10-27T14:39:15.427Z,9.45
2023-10-27T14:41:44.375Z,9.37
2023-10-27T14:44:11.914Z,9.21
2023-10-27T14:46:39.247Z,9.30
2023-10-27T14:49:06.885Z,9.14
2023-10-27T14:51:34.216Z,9.28
2023-10-27T14:54:01.895Z,9.17
2023-10-27T14:56:29.252Z,9.28
2023-10-27T14:58:57.938Z,9.27
2023-10-27T15:01:25.854Z,9.38
2023-10-27T15:03:53.610Z,9.62
2023-10-27T15:06:21.951Z,9.44
2023-10-27T15:08:49.199Z,9.42
2023-10-27T15:11:16.597Z,9.32
2023-10-27T15:13:44.075Z,9.35
2023-10-27T15:16:14.711Z,9.18
2023-10-27T15:18:42.384Z,9.27
2023-10-27T15:21:11.314Z,9.13
2023-10-27T15:23:38.735Z,9.17
2023-10-27T15:26:07.571Z,9.04
2023-10-27T15:28:34.896Z,9.05
2023-10-27T15:31:03.742Z,9.09
2023-10-27T15:33:35.176Z,9.01
2023-10-27T15:36:07.221Z,9.03
2023-10-27T15:38:35.166Z,8.91
2023-10-27T15:41:04.203Z,8.91
2023-10-27T15:43:32.035Z,8.84
2023-10-27T15:46:00.783Z,9.00
2023-10-27T15:48:28.573Z,8.89
2023-10-27T15:51:01.045Z,8.90
2023-10-27T15:53:28.531Z,8.84
2023-10-27T15:55:56.071Z,8.97
2023-10-27T15:58:25.612Z,9.17
2023-10-27T16:00:55.701Z,9.26
2023-10-27T16:03:24.162Z,9.19
2023-10-27T16:05:51.753Z,9.06
2023-10-27T16:08:20.437Z,9.02
2023-10-27T16:10:48.276Z,9.26
2023-10-27T16:13:15.863Z,9.41
2023-10-27T16:15:43.321Z,9.65
2023-10-27T16:18:11.146Z,9.44
2023-10-27T16:20:39.327Z,9.24
2023-10-27T16:23:07.225Z,9.12
2023-10-27T16:25:36.324Z,9.11
2023-10-27T16:28:04.248Z,9.14
2023-10-27T16:30:31.628Z,9.03
2023-10-27T16:32:58.938Z,8.95
2023-10-27T16:35:26.451Z,9.04
2023-10-27T16:37:53.759Z,9.11
2023-10-27T16:40:21.110Z,9.03
2023-10-27T16:42:50.752Z,9.01
2023-10-27T16:45:18.089Z,8.97
2023-10-27T16:47:46.388Z,8.98
2023-10-27T16:50:14.046Z,8.93
2023-10-27T16:52:41.394Z,9.01
2023-10-27T16:55:09.105Z,9.03
2023-10-27T16:57:36.700Z,8.93
2023-10-27T17:00:07.128Z,8.93
2023-10-27T17:02:34.606Z,8.94
2023-10-27T17:05:02.133Z,9.05
2023-10-27T17:07:30.598Z,9.33
2023-10-27T17:09:57.958Z,9.36
2023-10-27T17:12:25.390Z,9.23
2023-10-27T17:14:53.041Z,9.16
2023-10-27T17:17:21.806Z,9.08
2023-10-27T17:19:51.282Z,8.94
2023-10-27T17:22:20.758Z,8.98
2023-10-27T17:24:53.359Z,8.91
2023-10-27T17:27:22.151Z,8.96
2023-10-27T17:29:49.309Z,8.91
2023-10-27T17:32:16.714Z,8.99
2023-10-27T17:34:45.549Z,9.16
2023-10-27T17:37:12.790Z,9.00
2023-10-27T17:39:40.115Z,9.09
2023-10-27T17:42:07.434Z,9.06
2023-10-27T17:44:34.748Z,8.94
2023-10-27T17:47:02.088Z,8.91
2023-10-27T17:49:29.406Z,8.84
2023-10-27T17:51:58.067Z,8.74
2023-10-27T17:54:25.284Z,8.72
2023-10-27T17:56:52.569Z,8.74
2023-10-27T17:59:20.849Z,8.68
2023-10-27T18:01:48.173Z,8.63
2023-10-27T18:04:17.040Z,8.68
2023-10-27T18:06:44.360Z,8.61
2023-10-27T18:09:13.264Z,8.59
2023-10-27T18:11:40.536Z,8.60
2023-10-27T18:14:07.817Z,8.71
2023-10-27T18:16:35.152Z,8.69
2023-10-27T18:19:02.585Z,8.65
2023-10-27T18:21:29.940Z,8.57
2023-10-27T18:23:57.232Z,8.60
2023-10-27T18:26:26.952Z,8.66
2023-10-27T18:28:54.337Z,8.63
2023-10-27T18:31:21.699Z,8.58
2023-10-27T18:33:48.976Z,8.81
2023-10-27T18:36:17.904Z,8.84
2023-10-27T18:38:48.226Z,8.73
2023-10-27T18:41:16.256Z,8.64
2023-10-27T18:43:45.144Z,8.64
2023-10-27T18:46:12.650Z,8.57
2023-10-27T18:48:39.981Z,8.58
2023-10-27T18:51:07.378Z,8.64
2023-10-27T18:53:37.421Z,8.62
2023-10-27T18:56:06.805Z,8.72
2023-10-27T18:58:34.457Z,8.68
2023-10-27T19:01:05.759Z,8.77
2023-10-27T19:03:33.322Z,8.74
2023-10-27T19:06:01.029Z,8.82
2023-10-27T19:08:28.441Z,8.72
2023-10-27T19:11:03.395Z,8.73
2023-10-27T19:13:31.687Z,8.84
2023-10-27T19:15:59.206Z,8.75
2023-10-27T19:18:28.142Z,8.61
2023-10-27T19:21:03.700Z,8.61
2023-10-27T19:23:31.844Z,8.71
2023-10-27T19:26:08.480Z,8.69
2023-10-27T19:28:35.800Z,8.62
2023-10-27T19:31:03.247Z,8.61
2023-10-27T19:33:31.970Z,8.64
2023-10-27T19:35:59.271Z,8.66
2023-10-27T19:38:26.516Z,8.61
2023-10-27T19:40:53.858Z,8.59
2023-10-27T19:43:21.243Z,8.54
2023-10-27T19:45:49.646Z,8.62
2023-10-27T19:48:17.180Z,8.57
2023-10-27T19:50:48.028Z,8.67
2023-10-27T19:53:15.552Z,8.68
2023-10-27T19:55:43.142Z,8.64
2023-10-27T19:58:10.883Z,8.69
2023-10-27T20:00:38.450Z,8.64
2023-10-27T20:03:05.883Z,8.85
2023-10-27T20:05:34.446Z,8.87
2023-10-27T20:08:03.175Z,8.77
2023-10-27T20:10:35.924Z,8.82
2023-10-27T20:13:03.276Z,8.76
2023-10-27T20:15:33.473Z,8.73
2023-10-27T20:18:01.089Z,8.65
2023-10-27T20:20:28.349Z,8.61
2023-10-27T20:22:55.654Z,8.64
2023-10-27T20:25:24.892Z,8.66
2023-10-27T20:27:52.267Z,8.58
2023-10-27T20:30:19.805Z,8.69
2023-10-27T20:32:47.149Z,8.68
2023-10-27T20:35:14.478Z,8.74
2023-10-27T20:37:41.851Z,8.66
2023-10-27T20:40:10.496Z,8.75
2023-10-27T20:42:39.159Z,8.75
2023-10-27T20:45:07.728Z,8.78
2023-10-27T20:47:35.076Z,8.85
2023-10-27T20:50:02.428Z,8.89
2023-10-27T20:52:29.703Z,8.88
2023-10-27T20:54:57.061Z,8.80
2023-10-27T20:57:24.350Z,8.83
2023-10-27T20:59:52.942Z,8.77
2023-10-27T21:02:20.291Z,8.70
2023-10-27T21:04:47.671Z,8.56
2023-10-27T21:07:15.208Z,8.53
2023-10-27T21:09:42.566Z,8.58
2023-10-27T21:12:09.814Z,8.59
2023-10-27T21:14:37.115Z,8.53
2023-10-27T21:17:06.069Z,8.48
2023-10-27T21:19:33.517Z,8.57
2023-10-27T21:22:00.808Z,8.63
2023-10-27T21:24:28.129Z,8.66
2023-10-27T21:26:55.493Z,8.87
2023-10-27T21:29:22.777Z,8.83
2023-10-27T21:31:50.101Z,8.83
2023-10-27T21:34:20.317Z,8.73
2023-10-27T21:36:48.739Z,9.01
2023-10-27T21:39:16.131Z,8.94
2023-10-27T21:41:43.665Z,8.87
2023-10-27T21:44:10.999Z,8.81
2023-10-27T21:46:38.310Z,8.84
2023-10-27T21:49:05.965Z,8.79
2023-10-27T21:51:34.583Z,8.81
2023-10-27T21:54:01.801Z,8.78
2023-10-27T21:56:29.088Z,8.72
2023-10-27T21:58:56.381Z,8.70
2023-10-27T22:01:24.004Z,8.75
2023-10-27T22:03:58.352Z,8.87
2023-10-27T22:06:26.585Z,9.06
2023-10-27T22:08:55.234Z,8.97
2023-10-27T22:11:22.571Z,9.13
2023-10-27T22:13:49.940Z,9.09
2023-10-27T22:16:17.175Z,9.00
2023-10-27T22:18:44.485Z,8.96
2023-10-27T22:21:12.237Z,8.93
2023-10-27T22:23:41.177Z,8.86
2023-10-27T22:26:09.909Z,8.92
2023-10-27T22:28:38.989Z,9.04
2023-10-27T22:31:06.359Z,8.88
2023-10-27T22:33:33.663Z,8.95
2023-10-27T22:36:00.916Z,8.85
2023-10-27T22:38:28.250Z,8.82
2023-10-27T22:40:55.610Z,9.07
2023-10-27T22:43:24.486Z,9.06
2023-10-27T22:45:52.916Z,9.00
2023-10-27T22:48:20.168Z,8.98
2023-10-27T22:50:47.484Z,9.05
2023-10-27T22:53:14.707Z,8.93
2023-10-27T22:55:46.039Z,8.97
2023-10-27T22:58:13.590Z,9.12
2023-10-27T23:00:42.729Z,8.97
2023-10-27T23:03:10.141Z,8.91
2023-10-27T23:05:37.749Z,8.93
2023-10-27T23:08:05.099Z,8.91
2023-10-27T23:10:32.467Z,9.15
2023-10-27T23:12:59.936Z,8.96
2023-10-27T23:15:27.209Z,9.02
2023-10-27T23:17:55.962Z,9.03
2023-10-27T23:20:23.421Z,8.99
2023-10-27T23:22:50.745Z,8.93
2023-10-27T23:25:18.073Z,8.91
2023-10-27T23:27:45.347Z,9.06
2023-10-27T23:30:13.316Z,9.07
2023-10-27T23:32:40.646Z,9.24
2023-10-27T23:35:09.842Z,9.10
2023-10-27T23:37:37.176Z,8.98
2023-10-27T23:40:05.100Z,8.96
2023-10-27T23:42:32.409Z,8.94
2023-10-27T23:44:59.769Z,8.89
2023-10-27T23:47:27.087Z,8.87
2023-10-27T23:49:54.511Z,8.78
2023-10-27T23:52:23.152Z,8.91
2023-10-27T23:54:50.389Z,8.96
2023-10-27T23:57:17.677Z,9.04
2023-10-27T23:59:45.006Z,9.14
